Ormsby, MN

07:20 PM CDT del 24 Aprile 2015 (GMT -0500)
Saint James Municipal | | Change Station
CLOSE
Current Station
Aeroporto
Location: St. James,
Altitudine: 1066 ft
Stazioni meteo nelle vicinanze

Alt. 1066 ft 43.99 °N, 94.56 °W | Updated 5 minutes ago

Coperto
Coperto
48 °F
Sembra 48 °F
N
17
Vento Variabile Vento da ESE
Gusts 23 mph

Oggi
Massima -- | Minima -- °F
--% Possibilità di precip.
Ieri
Massima -- | Minima -- °F
Precip. -- in
6:21 AM 8:13 PM
Luna crescente, 40% visible
Pressione 29.72 in
Visibilità 10.0 miglia
Nuvole Molto nuvoloso 1500 ft
Coperto 2600 ft
Punto di rugiada 43 °F
Umidità 82%
Piovosità 0.00 in
Spessore del manto nevoso Non disponibile.
Raggi UV 0 fuori da 12
Polline 9.20 fuori da 12
Qualità dell'aria Non disponibile.
Flu Activity Local Activity
METAR KJYG 250015Z AUTO 12015G20KT 10SM BKN015 OVC026 09/06 A2972 RMK AO2

More Conditions Fewer Conditions

Pressione 29.72 in
Visibilità 10.0 miglia
Nuvole Molto nuvoloso 1500 ft
Coperto 2600 ft
Punto di rugiada 43 °F
Umidità 82%
Piovosità 0.00 in
Spessore del manto nevoso Non disponibile.
Raggi UV 0 fuori da 12
Polline 9.20 fuori da 12
Qualità dell'aria Non disponibile.
Flu Activity Local Activity
METAR KJYG 250015Z AUTO 12015G20KT 10SM BKN015 OVC026 09/06 A2972 RMK AO2

More Conditions Fewer Conditions

10-Day Weather Forecast

Almanac

Astronomia

Apr. 24, 2015 Alba Tramonto
Ora attuale
Crepuscolo civile
Crepuscolo nautico
Crepuscolo astronomico
Luna
Estensione della luce visibile
Lunghezza del giorno
Tomorrow will be .
, % of the Moon is Illuminated

Gli estremi di oggi

State Highs State Lows

Community

WunderPhotos

Upload Photos

1,816,515 foto caricate!

WunderBlogs® & News

Nearby

Qualità dell'aria

  Qualità dell'aria Indice AQ Inquinante
Not available.

Profondità neve

Stazione Profondità Altitudine

Attività sismica

Città  Distanza Mag. Data & Ora
Minimo Magnitudo Mostrato è 2.5.

Temperature delle acque costiere

Località Temperatura

Stations

Stazioni meteo nelle vicinanze

Ubicazione della stazione Temp. Raffreddamento del vento Punto di rugiada Umidità Vento Precip. Alt. Aggiornato Tipo